createdAt,value
2023-05-22T00:00:58.564Z,16.41
2023-05-22T00:01:58.521Z,16.53
2023-05-22T00:02:58.631Z,16.41
2023-05-22T00:03:58.477Z,16.42
2023-05-22T00:04:58.561Z,16.36
2023-05-22T00:05:58.510Z,16.32
2023-05-22T00:06:58.581Z,16.28
2023-05-22T00:07:58.494Z,16.26
2023-05-22T00:08:58.492Z,16.17
2023-05-22T00:09:58.511Z,16.24
2023-05-22T00:10:59.019Z,16.21
2023-05-22T00:11:58.427Z,16.21
2023-05-22T00:13:01.365Z,16.26
2023-05-22T00:13:58.446Z,16.29
2023-05-22T00:14:58.421Z,16.36
2023-05-22T00:15:59.409Z,16.32
2023-05-22T00:16:58.594Z,16.36
2023-05-22T00:17:58.488Z,16.38
2023-05-22T00:18:58.795Z,16.26
2023-05-22T00:19:58.378Z,16.20
2023-05-22T00:20:58.439Z,16.16
2023-05-22T00:21:59.331Z,16.05
2023-05-22T00:22:58.381Z,16.00
2023-05-22T00:23:58.554Z,16.04
2023-05-22T00:24:58.335Z,15.95
2023-05-22T00:25:58.336Z,15.97
2023-05-22T00:26:58.341Z,15.98
2023-05-22T00:27:58.315Z,15.92
2023-05-22T00:28:58.318Z,15.90
2023-05-22T00:29:58.314Z,15.80
2023-05-22T00:30:58.275Z,15.79
2023-05-22T00:31:58.313Z,15.76
2023-05-22T00:32:58.447Z,15.77
2023-05-22T00:33:58.271Z,15.83
2023-05-22T00:34:58.275Z,15.86
2023-05-22T00:35:58.241Z,15.76
2023-05-22T00:36:58.252Z,15.77
2023-05-22T00:37:58.258Z,15.72
2023-05-22T00:38:58.216Z,15.72
2023-05-22T00:39:58.232Z,15.76
2023-05-22T00:40:58.243Z,15.72
2023-05-22T00:41:58.223Z,15.76
2023-05-22T00:42:58.256Z,15.73
2023-05-22T00:43:58.201Z,15.70
2023-05-22T00:44:58.191Z,15.73
2023-05-22T00:45:58.169Z,15.65
2023-05-22T00:46:58.224Z,15.67
2023-05-22T00:47:59.098Z,15.67
2023-05-22T00:48:58.178Z,15.73
2023-05-22T00:49:58.155Z,15.65
2023-05-22T00:50:58.144Z,15.65
2023-05-22T00:51:59.112Z,15.61
2023-05-22T00:52:58.131Z,15.68
2023-05-22T00:53:58.334Z,15.65
2023-05-22T00:54:58.125Z,15.59
2023-05-22T00:55:58.140Z,15.65
2023-05-22T00:56:58.101Z,15.61
2023-05-22T00:57:58.089Z,15.64
2023-05-22T00:58:58.082Z,15.65
2023-05-22T00:59:58.120Z,15.52
2023-05-22T01:00:58.097Z,15.61
2023-05-22T01:01:58.084Z,15.65
2023-05-22T01:02:58.113Z,15.64
2023-05-22T01:03:58.188Z,15.57
2023-05-22T01:04:58.191Z,15.59
2023-05-22T01:05:58.089Z,15.61
2023-05-22T01:06:58.047Z,15.59
2023-05-22T01:07:58.020Z,15.51
2023-05-22T01:08:58.024Z,15.55
2023-05-22T01:09:57.997Z,15.42
2023-05-22T01:10:57.992Z,15.40
2023-05-22T01:11:58.046Z,15.42
2023-05-22T01:12:57.963Z,15.46
2023-05-22T01:13:57.944Z,15.42
2023-05-22T01:14:57.954Z,15.42
2023-05-22T01:15:58.165Z,15.40
2023-05-22T01:16:57.983Z,15.39
2023-05-22T01:17:57.936Z,15.39
2023-05-22T01:18:57.930Z,15.25
2023-05-22T01:19:57.929Z,15.37
2023-05-22T01:20:57.912Z,15.40
2023-05-22T01:21:57.898Z,15.29
2023-05-22T01:22:57.957Z,15.24
2023-05-22T01:23:57.897Z,15.22
2023-05-22T01:24:57.881Z,15.27
2023-05-22T01:25:57.870Z,15.22
2023-05-22T01:26:57.845Z,15.21
2023-05-22T01:27:58.516Z,15.21
2023-05-22T01:28:57.832Z,15.21
2023-05-22T01:29:57.859Z,15.25
2023-05-22T01:30:58.043Z,15.14
2023-05-22T01:31:57.824Z,15.07
2023-05-22T01:32:57.951Z,15.06
2023-05-22T01:33:58.012Z,15.04
2023-05-22T01:34:57.817Z,15.03
2023-05-22T01:35:57.787Z,15.00
2023-05-22T01:36:58.513Z,15.00
2023-05-22T01:37:57.812Z,14.92
2023-05-22T01:38:57.786Z,14.89
2023-05-22T01:39:57.750Z,14.91
2023-05-22T01:40:57.784Z,14.88
2023-05-22T01:41:57.743Z,14.78
2023-05-22T01:42:57.731Z,14.89
2023-05-22T01:43:57.782Z,14.73
2023-05-22T01:44:57.706Z,14.82
2023-05-22T01:45:57.780Z,14.86
2023-05-22T01:46:57.694Z,14.73
2023-05-22T01:47:57.813Z,14.78
2023-05-22T01:48:57.657Z,14.77
2023-05-22T01:49:57.723Z,14.65
2023-05-22T01:50:57.899Z,14.66
2023-05-22T01:51:57.650Z,14.68
2023-05-22T01:52:57.647Z,14.68
2023-05-22T01:53:57.623Z,14.63
2023-05-22T01:54:57.652Z,14.65
2023-05-22T01:55:57.619Z,14.60
2023-05-22T01:56:57.647Z,14.58
2023-05-22T01:57:57.597Z,14.50
2023-05-22T01:58:57.600Z,14.58
2023-05-22T01:59:57.622Z,14.58
2023-05-22T02:00:57.677Z,14.53
2023-05-22T02:01:57.587Z,14.43
2023-05-22T02:02:57.687Z,14.58
2023-05-22T02:03:57.574Z,14.58
2023-05-22T02:04:57.556Z,14.51
2023-05-22T02:05:57.594Z,14.55
2023-05-22T02:06:57.561Z,14.55
2023-05-22T02:07:57.513Z,14.58
2023-05-22T02:08:57.548Z,14.54
2023-05-22T02:09:57.516Z,14.54
2023-05-22T02:10:57.548Z,14.47
2023-05-22T02:11:57.497Z,14.45
2023-05-22T02:12:58.516Z,14.37
2023-05-22T02:13:57.552Z,14.36
2023-05-22T02:14:57.482Z,14.45
2023-05-22T02:15:57.523Z,14.33
2023-05-22T02:16:57.572Z,14.26
2023-05-22T02:17:57.558Z,14.26
2023-05-22T02:18:57.505Z,14.22
2023-05-22T02:19:57.441Z,14.32
2023-05-22T02:20:57.451Z,14.33
2023-05-22T02:21:57.421Z,14.20
2023-05-22T02:22:57.388Z,14.14
2023-05-22T02:23:57.400Z,14.10
2023-05-22T02:24:57.409Z,14.12
2023-05-22T02:25:57.432Z,14.18
2023-05-22T02:26:57.349Z,14.11
2023-05-22T02:27:57.385Z,14.11
2023-05-22T02:28:58.361Z,14.15
2023-05-22T02:29:58.726Z,14.08
2023-05-22T02:30:57.400Z,14.00
2023-05-22T02:31:57.366Z,13.97
2023-05-22T02:32:57.379Z,14.11
2023-05-22T02:33:57.311Z,14.11
2023-05-22T02:34:57.323Z,14.10
2023-05-22T02:35:57.335Z,14.08
2023-05-22T02:36:57.285Z,14.07
2023-05-22T02:37:57.417Z,13.99
2023-05-22T02:38:57.319Z,14.03
2023-05-22T02:39:57.265Z,14.05
2023-05-22T02:40:57.274Z,14.00
2023-05-22T02:41:57.229Z,13.93
2023-05-22T02:42:58.108Z,13.95
2023-05-22T02:43:57.293Z,13.93
2023-05-22T02:44:57.274Z,13.93
2023-05-22T02:45:57.209Z,13.96
2023-05-22T02:46:57.433Z,13.87
2023-05-22T02:47:57.269Z,13.86
2023-05-22T02:48:58.052Z,13.79
2023-05-22T02:49:58.117Z,13.75
2023-05-22T02:50:57.192Z,13.83
2023-05-22T02:51:57.216Z,13.74
2023-05-22T02:52:57.222Z,13.72
2023-05-22T02:53:57.213Z,13.77
2023-05-22T02:54:57.225Z,13.72
2023-05-22T02:55:57.177Z,13.68
2023-05-22T02:56:57.198Z,13.79
2023-05-22T02:57:57.124Z,13.68
2023-05-22T02:58:57.130Z,13.72
2023-05-22T02:59:57.216Z,13.70
2023-05-22T03:00:57.119Z,13.77
2023-05-22T03:01:58.109Z,13.71
2023-05-22T03:02:57.236Z,13.72
2023-05-22T03:03:57.995Z,13.72
2023-05-22T03:04:57.117Z,13.75
2023-05-22T03:05:57.067Z,13.68
2023-05-22T03:06:57.090Z,13.62
2023-05-22T03:07:57.052Z,13.67
2023-05-22T03:08:57.051Z,13.68
2023-05-22T03:09:57.108Z,13.68
2023-05-22T03:10:58.038Z,13.68
2023-05-22T03:11:57.050Z,13.72
2023-05-22T03:12:58.021Z,13.71
2023-05-22T03:13:56.990Z,13.68
2023-05-22T03:14:58.031Z,13.57
2023-05-22T03:15:57.014Z,13.71
2023-05-22T03:16:56.988Z,13.59
2023-05-22T03:17:57.029Z,13.60
2023-05-22T03:18:56.974Z,13.63
2023-05-22T03:19:57.084Z,13.56
2023-05-22T03:20:56.982Z,13.56
2023-05-22T03:21:56.953Z,13.60
2023-05-22T03:22:56.945Z,13.60
2023-05-22T03:23:56.958Z,13.65
2023-05-22T03:24:56.983Z,13.62
2023-05-22T03:25:56.974Z,13.54
2023-05-22T03:26:56.981Z,13.60
2023-05-22T03:27:56.891Z,13.65
2023-05-22T03:28:56.963Z,13.56
2023-05-22T03:29:56.897Z,13.65
2023-05-22T03:30:56.901Z,13.53
2023-05-22T03:31:56.872Z,13.54
2023-05-22T03:32:57.856Z,13.54
2023-05-22T03:33:56.884Z,13.49
2023-05-22T03:34:56.866Z,13.41
2023-05-22T03:35:56.842Z,13.46
2023-05-22T03:36:56.827Z,13.50
2023-05-22T03:37:56.852Z,13.39
2023-05-22T03:38:56.824Z,13.41
2023-05-22T03:40:29.426Z,13.42
2023-05-22T03:40:56.822Z,13.54
2023-05-22T03:41:56.832Z,13.49
2023-05-22T03:42:56.790Z,13.57
2023-05-22T03:43:56.789Z,13.68
2023-05-22T03:44:56.739Z,13.52
2023-05-22T03:45:56.807Z,13.59
2023-05-22T03:46:56.769Z,13.65
2023-05-22T04:02:38.550Z,13.70
2023-05-22T04:03:38.405Z,13.74
2023-05-22T04:04:38.689Z,13.81
2023-05-22T04:05:38.443Z,13.86
2023-05-22T04:06:39.531Z,13.99
2023-05-22T04:07:39.565Z,13.90
2023-05-22T04:08:39.542Z,14.03
2023-05-22T04:09:39.473Z,14.14
2023-05-22T04:10:40.371Z,14.04
2023-05-22T04:11:39.494Z,14.14
2023-05-22T04:12:39.500Z,14.15
2023-05-22T04:13:39.487Z,14.23
2023-05-22T04:14:39.468Z,14.28
2023-05-22T04:15:39.513Z,14.26
2023-05-22T04:16:39.438Z,14.23
2023-05-22T04:17:39.422Z,14.35
2023-05-22T04:18:39.388Z,14.23
2023-05-22T04:19:39.420Z,14.36
2023-05-22T04:20:39.648Z,14.20
2023-05-22T04:21:39.418Z,14.47
2023-05-22T04:22:39.416Z,14.43
2023-05-22T04:23:39.394Z,14.55
2023-05-22T04:24:39.406Z,14.59
2023-05-22T04:25:39.350Z,14.70
2023-05-22T04:26:41.751Z,14.79
2023-05-22T04:27:39.351Z,14.81
2023-05-22T04:28:39.363Z,14.91
2023-05-22T04:29:39.403Z,14.85
2023-05-22T04:30:39.466Z,14.97
2023-05-22T04:31:39.413Z,15.04
2023-05-22T04:32:39.324Z,15.17
2023-05-22T04:33:39.300Z,15.15
2023-05-22T04:34:39.318Z,15.35
2023-05-22T04:36:12.591Z,15.44
2023-05-22T04:36:39.267Z,15.46
2023-05-22T04:37:39.306Z,15.61
2023-05-22T04:38:40.287Z,15.59
2023-05-22T04:39:39.235Z,15.77
2023-05-22T04:40:39.420Z,15.77
2023-05-22T04:41:39.287Z,16.00
2023-05-22T04:42:40.112Z,16.02
2023-05-22T04:43:40.128Z,16.20
2023-05-22T04:44:39.256Z,16.26
2023-05-22T04:45:39.191Z,16.38
2023-05-22T04:46:39.276Z,16.49
2023-05-22T04:47:39.235Z,16.54
2023-05-22T04:48:39.164Z,16.53
2023-05-22T04:49:39.205Z,16.53
2023-05-22T04:50:40.423Z,16.53
2023-05-22T04:51:39.174Z,16.56
2023-05-22T04:52:39.161Z,16.57
2023-05-22T04:53:39.128Z,16.78
2023-05-22T04:54:39.168Z,16.99
2023-05-22T04:55:39.186Z,17.12
2023-05-22T04:56:39.119Z,17.12
2023-05-22T04:57:39.136Z,17.22
2023-05-22T04:58:39.130Z,17.20
2023-05-22T04:59:39.225Z,17.02
2023-05-22T05:00:39.212Z,17.22
2023-05-22T05:01:39.175Z,17.36
2023-05-22T05:02:39.110Z,17.70
2023-05-22T05:03:39.231Z,17.72
2023-05-22T05:04:39.086Z,18.08
2023-05-22T05:05:39.033Z,18.43
2023-05-22T05:06:39.048Z,18.84
2023-05-22T05:07:39.061Z,19.19
2023-05-22T05:08:39.061Z,19.30
2023-05-22T05:09:38.998Z,19.44
2023-05-22T05:10:39.137Z,19.49
2023-05-22T05:11:39.010Z,19.54
2023-05-22T05:12:39.023Z,19.47
2023-05-22T05:13:39.046Z,19.24
2023-05-22T05:14:38.960Z,19.19
2023-05-22T05:15:38.999Z,19.12
2023-05-22T05:16:38.992Z,19.08
2023-05-22T05:17:38.997Z,18.93
2023-05-22T05:18:38.976Z,18.98
2023-05-22T05:19:39.043Z,19.11
2023-05-22T05:20:39.239Z,19.11
2023-05-22T05:21:38.957Z,19.40
2023-05-22T05:22:39.008Z,19.41
2023-05-22T05:23:38.927Z,19.41
2023-05-22T05:24:38.926Z,19.44
2023-05-22T05:25:38.923Z,19.52
2023-05-22T05:26:38.900Z,19.56
2023-05-22T05:27:38.858Z,19.51
2023-05-22T05:28:38.888Z,19.67
2023-05-22T05:29:38.909Z,19.63
2023-05-22T05:30:39.004Z,19.47
2023-05-22T05:31:38.913Z,19.37
2023-05-22T05:32:38.884Z,19.27
2023-05-22T05:33:38.878Z,19.02
2023-05-22T05:34:39.008Z,18.73
2023-05-22T05:35:40.195Z,18.83
2023-05-22T05:36:38.799Z,18.88
2023-05-22T05:37:38.797Z,18.88
2023-05-22T05:38:38.814Z,18.84
2023-05-22T05:39:38.840Z,18.74
2023-05-22T05:40:39.111Z,18.86
2023-05-22T05:41:39.673Z,19.24
2023-05-22T05:42:38.771Z,19.37
2023-05-22T05:43:38.807Z,19.54
2023-05-22T05:44:38.763Z,19.67
2023-05-22T05:45:38.764Z,19.79
2023-05-22T05:46:38.897Z,19.62
2023-05-22T05:47:38.887Z,19.81
2023-05-22T05:48:38.761Z,19.84
2023-05-22T05:49:39.713Z,19.94
2023-05-22T05:50:39.147Z,20.11
2023-05-22T05:51:38.681Z,20.22
2023-05-22T05:52:38.702Z,20.28
2023-05-22T05:53:38.683Z,20.36
2023-05-22T05:54:38.702Z,20.36
2023-05-22T05:55:38.676Z,20.21
2023-05-22T05:56:38.693Z,20.24
2023-05-22T05:57:39.681Z,20.32
2023-05-22T05:58:38.683Z,20.22
2023-05-22T05:59:38.666Z,20.29
2023-05-22T06:00:38.783Z,20.18
2023-05-22T06:01:38.832Z,20.19
2023-05-22T06:02:38.690Z,20.21
2023-05-22T06:03:38.740Z,20.32
2023-05-22T06:04:38.607Z,20.67
2023-05-22T06:05:38.634Z,20.77
2023-05-22T06:06:38.577Z,20.44
2023-05-22T06:07:38.605Z,20.40
2023-05-22T06:08:38.600Z,20.44
2023-05-22T06:09:38.567Z,20.47
2023-05-22T06:10:38.881Z,20.67
2023-05-22T06:11:38.581Z,20.87
2023-05-22T06:12:38.565Z,21.07
2023-05-22T06:13:38.588Z,21.12
2023-05-22T06:14:38.593Z,21.17
2023-05-22T06:15:38.570Z,21.20
2023-05-22T06:16:38.598Z,21.21
2023-05-22T06:17:38.554Z,20.96
2023-05-22T06:18:38.514Z,20.69
2023-05-22T06:19:38.523Z,20.72
2023-05-22T06:20:38.692Z,20.56
2023-05-22T06:21:38.491Z,20.51
2023-05-22T06:22:39.148Z,20.66
2023-05-22T06:23:38.466Z,20.85
2023-05-22T06:24:38.474Z,20.75
2023-05-22T06:25:38.475Z,20.74
2023-05-22T06:26:38.547Z,20.69
2023-05-22T06:27:38.455Z,20.78
2023-05-22T06:28:38.467Z,20.82
2023-05-22T06:29:38.454Z,20.92
2023-05-22T06:30:43.415Z,20.72
2023-05-22T06:31:40.472Z,20.84
2023-05-22T06:32:38.508Z,21.05
2023-05-22T06:33:38.458Z,21.20
2023-05-22T06:34:38.448Z,21.24
2023-05-22T06:35:38.409Z,21.07
2023-05-22T06:36:38.390Z,21.02
2023-05-22T06:37:38.397Z,21.22
2023-05-22T06:38:38.394Z,21.43
2023-05-22T06:39:38.379Z,21.37
2023-05-22T06:40:38.483Z,21.54
2023-05-22T06:41:38.371Z,21.37
2023-05-22T06:42:38.490Z,21.30
2023-05-22T06:43:38.438Z,21.30
2023-05-22T06:44:38.327Z,21.35
2023-05-22T06:45:38.331Z,21.61
2023-05-22T06:46:38.358Z,21.66
2023-05-22T06:47:38.303Z,21.58
2023-05-22T06:48:38.305Z,21.62
2023-05-22T06:49:38.300Z,21.57
2023-05-22T06:50:38.381Z,21.50
2023-05-22T06:51:38.269Z,21.32
2023-05-22T06:52:38.275Z,21.11
2023-05-22T06:53:38.271Z,21.18
2023-05-22T06:54:38.240Z,21.29
2023-05-22T06:55:38.226Z,21.27
2023-05-22T06:56:38.231Z,21.21
2023-05-22T06:57:38.228Z,21.21
2023-05-22T06:58:38.219Z,21.42
2023-05-22T06:59:38.225Z,21.36
2023-05-22T07:00:38.570Z,21.48
2023-05-22T07:01:38.216Z,21.62
2023-05-22T07:02:38.217Z,21.92
2023-05-22T07:03:38.170Z,22.08
2023-05-22T07:04:38.199Z,21.88
2023-05-22T07:05:38.240Z,21.77
2023-05-22T07:06:38.166Z,21.66
2023-05-22T07:07:38.151Z,21.99
2023-05-22T07:08:38.174Z,21.85
2023-05-22T07:09:38.148Z,21.79
2023-05-22T07:10:38.248Z,21.93
2023-05-22T07:11:38.109Z,21.98
2023-05-22T07:12:38.101Z,21.92
2023-05-22T07:13:38.132Z,22.13
2023-05-22T07:14:38.146Z,22.08
2023-05-22T07:15:38.118Z,22.07
2023-05-22T07:16:38.167Z,21.73
2023-05-22T07:17:38.098Z,21.95
2023-05-22T07:18:38.054Z,21.88
2023-05-22T07:19:38.093Z,22.06
2023-05-22T07:20:38.288Z,21.93
2023-05-22T07:21:38.041Z,22.08
2023-05-22T07:22:38.006Z,22.10
2023-05-22T07:23:38.023Z,22.02
2023-05-22T07:24:38.028Z,22.15
2023-05-22T07:25:38.061Z,22.00
2023-05-22T07:26:38.027Z,21.82
2023-05-22T07:27:37.999Z,21.58
2023-05-22T07:28:38.007Z,21.62
2023-05-22T07:29:37.986Z,21.60
2023-05-22T07:30:38.296Z,21.57
2023-05-22T07:31:38.082Z,21.60
2023-05-22T07:32:38.011Z,21.75
2023-05-22T07:33:37.940Z,22.08
2023-05-22T07:34:38.040Z,22.07
2023-05-22T07:35:37.897Z,22.17
2023-05-22T07:36:37.952Z,22.14
2023-05-22T07:37:37.959Z,22.22
2023-05-22T07:38:37.890Z,22.08
2023-05-22T07:39:37.911Z,22.41
2023-05-22T07:40:38.170Z,22.36
2023-05-22T07:41:37.908Z,22.36
2023-05-22T07:42:37.858Z,22.13
2023-05-22T07:43:37.885Z,22.25
2023-05-22T07:44:37.991Z,22.43
2023-05-22T07:45:37.974Z,22.70
2023-05-22T07:46:38.238Z,22.84
2023-05-22T07:47:37.936Z,22.41
2023-05-22T07:48:38.886Z,22.63
2023-05-22T07:49:37.812Z,22.47
2023-05-22T07:50:37.811Z,22.50
2023-05-22T07:51:37.787Z,22.51
2023-05-22T07:52:37.815Z,22.81
2023-05-22T07:53:37.781Z,22.94
2023-05-22T07:54:37.919Z,22.78
2023-05-22T07:55:37.957Z,22.54
2023-05-22T07:56:37.798Z,22.62
2023-05-22T07:57:37.786Z,22.47
2023-05-22T07:58:37.742Z,22.43
2023-05-22T07:59:37.815Z,22.59
2023-05-22T08:00:37.753Z,22.78
2023-05-22T08:01:37.752Z,22.99
2023-05-22T08:02:37.992Z,23.06
2023-05-22T08:03:37.904Z,23.50
2023-05-22T08:04:38.914Z,23.68
2023-05-22T08:05:37.728Z,23.71
2023-05-22T08:06:37.742Z,23.40
2023-05-22T08:07:37.691Z,23.17
2023-05-22T08:08:37.736Z,23.09
2023-05-22T08:09:37.730Z,22.96
2023-05-22T08:12:10.140Z,22.73
2023-05-22T08:12:37.708Z,22.66
2023-05-22T08:14:09.601Z,22.73
2023-05-22T08:15:11.817Z,22.88
2023-05-22T08:15:37.712Z,23.08
2023-05-22T08:16:37.865Z,23.17
2023-05-22T08:17:37.697Z,23.18
2023-05-22T08:18:37.941Z,23.09
2023-05-22T08:19:37.930Z,23.02
2023-05-22T08:20:37.961Z,23.13
2023-05-22T08:21:37.817Z,23.63
2023-05-22T08:22:37.673Z,23.84
2023-05-22T08:23:37.563Z,23.93
2023-05-22T08:24:37.633Z,23.93
2023-05-22T08:25:37.585Z,24.18
2023-05-22T08:26:37.686Z,24.14
2023-05-22T08:27:37.667Z,24.06
2023-05-22T08:28:37.555Z,24.05
2023-05-22T08:29:37.579Z,23.96
2023-05-22T08:30:37.829Z,23.98
2023-05-22T08:31:37.533Z,24.30
2023-05-22T08:32:37.658Z,24.39
2023-05-22T08:33:39.205Z,24.43
2023-05-22T08:34:37.742Z,24.80
2023-05-22T08:35:37.488Z,24.78
2023-05-22T08:36:37.499Z,25.06
2023-05-22T08:37:37.483Z,25.07
2023-05-22T08:38:37.541Z,25.32
2023-05-22T08:39:37.448Z,25.51
2023-05-22T08:40:37.676Z,25.32
2023-05-22T08:41:37.427Z,25.47
2023-05-22T08:42:37.456Z,25.96
2023-05-22T08:43:37.501Z,26.34
2023-05-22T08:44:37.435Z,26.62
2023-05-22T08:45:37.472Z,26.81
2023-05-22T08:46:37.454Z,27.30
2023-05-22T08:47:37.503Z,27.54
2023-05-22T08:48:37.386Z,27.48
2023-05-22T08:49:37.385Z,27.40
2023-05-22T08:50:37.883Z,27.51
2023-05-22T08:51:37.413Z,27.60
2023-05-22T08:52:37.376Z,27.51
2023-05-22T08:53:37.386Z,27.54
2023-05-22T08:54:37.362Z,26.66
2023-05-22T08:55:37.401Z,26.25
2023-05-22T08:56:39.837Z,26.38
2023-05-22T08:57:38.351Z,25.95
2023-05-22T08:58:37.313Z,25.75
2023-05-22T08:59:37.337Z,25.75
2023-05-22T09:00:38.469Z,26.22
2023-05-22T09:01:37.351Z,26.48
2023-05-22T09:02:37.366Z,26.77
2023-05-22T09:03:38.336Z,26.75
2023-05-22T09:04:37.410Z,26.78
2023-05-22T09:05:37.392Z,26.73
2023-05-22T09:06:37.440Z,26.70
2023-05-22T09:07:37.314Z,26.62
2023-05-22T09:08:37.350Z,25.88
2023-05-22T09:09:37.368Z,25.73
2023-05-22T09:10:37.457Z,25.96
2023-05-22T09:11:37.238Z,26.21
2023-05-22T09:12:37.249Z,26.63
2023-05-22T09:14:09.254Z,26.89
2023-05-22T09:14:38.201Z,26.84
2023-05-22T09:15:37.215Z,27.02
2023-05-22T09:16:37.207Z,27.48
2023-05-22T09:17:37.249Z,28.12
2023-05-22T09:18:37.148Z,28.01
2023-05-22T09:19:38.210Z,27.89
2023-05-22T09:20:37.324Z,27.98
2023-05-22T09:21:37.149Z,28.22
2023-05-22T09:22:37.158Z,27.87
2023-05-22T09:23:37.128Z,27.85
2023-05-22T09:24:37.113Z,27.60
2023-05-22T09:25:37.189Z,27.49
2023-05-22T09:26:37.143Z,27.40
2023-05-22T09:27:37.090Z,27.47
2023-05-22T09:28:37.121Z,27.14
2023-05-22T09:29:37.173Z,27.35
2023-05-22T09:30:37.180Z,27.39
2023-05-22T09:31:37.705Z,27.14
2023-05-22T09:32:37.119Z,27.58
2023-05-22T09:33:37.639Z,27.82
2023-05-22T09:34:37.107Z,28.12
2023-05-22T09:35:37.094Z,28.72
2023-05-22T09:36:37.067Z,28.81
2023-05-22T09:37:37.094Z,28.84
2023-05-22T09:38:37.106Z,28.26
2023-05-22T09:39:37.034Z,28.29
2023-05-22T09:40:37.217Z,28.42
2023-05-22T09:41:37.018Z,28.86
2023-05-22T09:42:37.011Z,29.05
2023-05-22T09:43:37.012Z,28.84
2023-05-22T09:44:37.012Z,29.16
2023-05-22T09:45:37.034Z,29.20
2023-05-22T09:46:37.047Z,29.29
2023-05-22T09:47:36.993Z,29.17
2023-05-22T09:48:36.995Z,28.67
2023-05-22T09:49:36.949Z,28.76
2023-05-22T09:50:37.007Z,29.13
2023-05-22T09:51:37.063Z,29.84
2023-05-22T09:52:36.937Z,30.27
2023-05-22T09:53:38.018Z,30.18
2023-05-22T09:54:37.084Z,29.94
2023-05-22T09:55:36.938Z,29.88
2023-05-22T09:56:39.976Z,29.97
2023-05-22T09:57:37.921Z,29.60
2023-05-22T09:58:36.909Z,29.44
2023-05-22T09:59:36.917Z,29.35
2023-05-22T10:00:36.917Z,29.23
2023-05-22T10:01:36.968Z,29.39
2023-05-22T10:02:36.928Z,29.54
2023-05-22T10:03:36.881Z,28.78
2023-05-22T10:04:36.918Z,28.51
2023-05-22T10:05:36.894Z,28.51
2023-05-22T10:06:36.876Z,28.25
2023-05-22T10:07:36.847Z,28.52
2023-05-22T10:08:36.862Z,28.35
2023-05-22T10:09:36.839Z,27.82
2023-05-22T10:10:36.858Z,27.67
2023-05-22T10:11:36.889Z,27.05
2023-05-22T10:12:36.849Z,26.68
2023-05-22T10:13:36.816Z,26.60
2023-05-22T10:14:36.816Z,27.03
2023-05-22T10:15:36.868Z,27.48
2023-05-22T10:16:36.854Z,27.78
2023-05-22T10:17:36.815Z,27.87
2023-05-22T10:18:36.789Z,27.85
2023-05-22T10:19:38.593Z,27.64
2023-05-22T10:20:36.959Z,27.17
2023-05-22T10:21:36.743Z,26.90
2023-05-22T10:22:36.761Z,27.03
2023-05-22T10:23:36.731Z,26.31
2023-05-22T10:24:36.712Z,26.56
2023-05-22T10:25:36.714Z,26.37
2023-05-22T10:26:37.426Z,26.36
2023-05-22T10:27:36.693Z,26.43
2023-05-22T10:28:36.694Z,25.85
2023-05-22T10:29:36.747Z,25.99
2023-05-22T10:30:36.729Z,26.16
2023-05-22T10:31:37.964Z,26.48
2023-05-22T10:32:36.688Z,26.60
2023-05-22T10:33:36.724Z,26.65
2023-05-22T10:34:36.640Z,26.41
2023-05-22T10:35:36.668Z,26.44
2023-05-22T10:36:36.676Z,26.33
2023-05-22T10:37:36.642Z,26.18
2023-05-22T10:38:36.617Z,25.91
2023-05-22T10:39:36.637Z,26.09
2023-05-22T10:40:37.362Z,26.21
2023-05-22T10:41:36.660Z,26.28
2023-05-22T10:42:36.664Z,26.31
2023-05-22T10:43:36.612Z,26.47
2023-05-22T10:44:36.557Z,26.73
2023-05-22T10:45:36.756Z,26.73
2023-05-22T10:46:36.579Z,26.40
2023-05-22T10:47:36.584Z,26.47
2023-05-22T10:48:36.538Z,26.47
2023-05-22T10:49:36.525Z,26.44
2023-05-22T10:50:36.560Z,26.45
2023-05-22T10:51:36.549Z,26.34
2023-05-22T10:52:36.531Z,26.22
2023-05-22T10:53:36.545Z,26.34
2023-05-22T10:54:36.523Z,26.45
2023-05-22T10:55:36.546Z,26.33
2023-05-22T10:56:36.526Z,26.36
2023-05-22T10:57:36.461Z,26.44
2023-05-22T10:58:36.538Z,26.60
2023-05-22T10:59:36.455Z,26.58
2023-05-22T11:00:36.522Z,26.43
2023-05-22T11:01:37.515Z,26.63
2023-05-22T11:02:36.476Z,26.60
2023-05-22T11:03:36.499Z,26.45
2023-05-22T11:04:36.434Z,26.53
2023-05-22T11:05:36.402Z,26.81
2023-05-22T11:06:36.484Z,26.80
2023-05-22T11:07:36.424Z,27.17
2023-05-22T11:08:36.363Z,27.32
2023-05-22T11:09:36.513Z,27.52
2023-05-22T11:10:36.417Z,27.52
2023-05-22T11:11:36.365Z,27.54
2023-05-22T11:12:36.400Z,27.32
2023-05-22T11:13:36.478Z,27.29
2023-05-22T11:14:36.456Z,27.32
2023-05-22T11:15:36.357Z,27.55
2023-05-22T11:16:36.398Z,27.59
2023-05-22T11:17:36.547Z,27.35
2023-05-22T11:18:36.331Z,27.12
2023-05-22T11:19:36.364Z,27.08
2023-05-22T11:20:36.325Z,27.00
2023-05-22T11:21:36.311Z,26.90
2023-05-22T11:22:36.306Z,27.42
2023-05-22T11:23:36.290Z,27.75
2023-05-22T11:24:36.300Z,27.75
2023-05-22T11:25:36.332Z,27.63
2023-05-22T11:26:36.248Z,27.49
2023-05-22T11:27:36.239Z,27.42
2023-05-22T11:28:36.279Z,27.40
2023-05-22T11:29:36.214Z,27.54
2023-05-22T11:30:36.994Z,28.10
2023-05-22T11:31:36.348Z,28.72
2023-05-22T11:32:36.261Z,28.79
2023-05-22T11:33:36.200Z,28.74
2023-05-22T11:34:36.256Z,28.70
2023-05-22T11:35:36.242Z,28.88
2023-05-22T11:36:36.207Z,29.13
2023-05-22T11:37:36.182Z,29.63
2023-05-22T11:38:36.185Z,29.47
2023-05-22T11:39:36.190Z,29.23
2023-05-22T11:40:36.232Z,29.01
2023-05-22T11:41:36.185Z,28.79
2023-05-22T11:42:36.172Z,28.11
2023-05-22T11:43:36.139Z,28.23
2023-05-22T11:44:36.115Z,28.85
2023-05-22T11:45:36.118Z,29.20
2023-05-22T11:46:36.290Z,28.79
2023-05-22T11:47:36.231Z,28.93
2023-05-22T11:48:36.116Z,29.45
2023-05-22T11:49:36.095Z,29.51
2023-05-22T11:50:42.178Z,29.27
2023-05-22T11:51:38.154Z,29.36
2023-05-22T11:52:36.077Z,29.34
2023-05-22T11:53:36.074Z,29.45
2023-05-22T11:54:38.621Z,29.36
2023-05-22T11:55:37.859Z,29.27
2023-05-22T11:56:36.192Z,29.20
2023-05-22T11:57:36.915Z,29.42
2023-05-22T11:58:36.034Z,29.71
2023-05-22T11:59:36.107Z,30.15
2023-05-22T12:00:36.034Z,30.55
2023-05-22T12:01:36.007Z,30.10
2023-05-22T12:02:36.241Z,29.38
2023-05-22T12:03:36.243Z,29.57
2023-05-22T12:04:36.062Z,30.08
2023-05-22T12:05:36.001Z,30.34
2023-05-22T12:06:36.076Z,30.61
2023-05-22T12:07:36.020Z,30.62
2023-05-22T12:08:35.984Z,30.75
2023-05-22T12:09:35.949Z,30.80
2023-05-22T12:10:36.117Z,30.39
2023-05-22T12:11:35.924Z,29.23
2023-05-22T12:12:35.975Z,28.44
2023-05-22T12:13:36.042Z,28.20
2023-05-22T12:14:35.910Z,28.02
2023-05-22T12:15:35.951Z,28.30
2023-05-22T12:16:36.052Z,29.08
2023-05-22T12:17:35.926Z,29.07
2023-05-22T12:18:35.975Z,29.34
2023-05-22T12:19:35.989Z,29.65
2023-05-22T12:20:35.969Z,30.21
2023-05-22T12:21:35.902Z,30.28
2023-05-22T12:22:35.858Z,30.05
2023-05-22T12:23:36.854Z,30.15
2023-05-22T12:24:35.877Z,29.95
2023-05-22T12:25:35.821Z,29.97
2023-05-22T12:26:35.837Z,30.00
2023-05-22T12:27:37.276Z,30.06
2023-05-22T12:28:35.819Z,29.94
2023-05-22T12:29:35.813Z,30.18
2023-05-22T12:30:35.816Z,30.31
2023-05-22T12:31:35.874Z,30.13
2023-05-22T12:32:36.790Z,30.30
2023-05-22T12:34:08.440Z,30.68
2023-05-22T12:35:07.722Z,30.23
2023-05-22T12:36:07.713Z,30.10
2023-05-22T12:37:08.377Z,30.44
2023-05-22T12:38:08.405Z,30.70
2023-05-22T12:39:08.441Z,30.00
2023-05-22T12:40:08.472Z,30.02
2023-05-22T12:41:07.681Z,29.51
2023-05-22T12:41:35.757Z,29.34
2023-05-22T12:42:35.725Z,29.24
2023-05-22T12:43:35.769Z,29.14
2023-05-22T12:44:35.715Z,29.49
2023-05-22T12:45:35.689Z,29.86
2023-05-22T12:46:35.790Z,30.23
2023-05-22T12:47:35.712Z,30.53
2023-05-22T12:48:35.676Z,30.39
2023-05-22T12:49:35.756Z,30.59
2023-05-22T12:50:35.705Z,30.66
2023-05-22T12:51:35.717Z,30.34
2023-05-22T12:52:35.661Z,29.88
2023-05-22T12:53:37.135Z,29.81
2023-05-22T12:54:35.679Z,30.13
2023-05-22T12:55:35.645Z,29.98
2023-05-22T12:56:35.647Z,30.35
2023-05-22T12:57:35.663Z,30.03
2023-05-22T12:58:35.625Z,29.39
2023-05-22T12:59:35.620Z,29.16
2023-05-22T13:00:35.628Z,29.27
2023-05-22T13:01:35.674Z,29.41
2023-05-22T13:02:35.635Z,29.45
2023-05-22T13:03:35.708Z,29.69
2023-05-22T13:04:35.640Z,30.10
2023-05-22T13:05:35.639Z,30.12
2023-05-22T13:06:35.581Z,30.31
2023-05-22T13:07:35.606Z,30.88
2023-05-22T13:08:35.675Z,30.99